sensor_id;sensor_type;location;lat;lon;timestamp;P1;durP1;ratioP1;P2;durP2;ratioP2
74707;SDS011;63360;50.104;8.074;2023-04-25T00:01:47;9.95;;;3.65;;
74707;SDS011;63360;50.104;8.074;2023-04-25T00:04:14;7.93;;;3.70;;
74707;SDS011;63360;50.104;8.074;2023-04-25T00:06:41;8.10;;;3.85;;
74707;SDS011;63360;50.104;8.074;2023-04-25T00:09:07;7.43;;;3.90;;
74707;SDS011;63360;50.104;8.074;2023-04-25T00:11:35;7.97;;;4.20;;
74707;SDS011;63360;50.104;8.074;2023-04-25T00:14:03;8.05;;;4.07;;
74707;SDS011;63360;50.104;8.074;2023-04-25T00:16:30;10.20;;;4.57;;
74707;SDS011;63360;50.104;8.074;2023-04-25T00:19:00;7.85;;;4.03;;
74707;SDS011;63360;50.104;8.074;2023-04-25T00:21:29;10.00;;;4.22;;
74707;SDS011;63360;50.104;8.074;2023-04-25T00:23:57;8.83;;;4.30;;
74707;SDS011;63360;50.104;8.074;2023-04-25T00:26:23;9.00;;;4.38;;
74707;SDS011;63360;50.104;8.074;2023-04-25T00:28:51;9.35;;;4.63;;
74707;SDS011;63360;50.104;8.074;2023-04-25T00:31:17;9.65;;;4.78;;
74707;SDS011;63360;50.104;8.074;2023-04-25T00:33:43;10.88;;;4.90;;
74707;SDS011;63360;50.104;8.074;2023-04-25T00:36:10;10.53;;;5.10;;
74707;SDS011;63360;50.104;8.074;2023-04-25T00:38:37;9.25;;;5.00;;
74707;SDS011;63360;50.104;8.074;2023-04-25T00:41:05;12.88;;;5.38;;
74707;SDS011;63360;50.104;8.074;2023-04-25T00:43:32;9.07;;;4.97;;
74707;SDS011;63360;50.104;8.074;2023-04-25T00:46:00;10.82;;;5.20;;
74707;SDS011;63360;50.104;8.074;2023-04-25T00:48:27;11.57;;;5.40;;
74707;SDS011;63360;50.104;8.074;2023-04-25T00:50:54;13.63;;;5.60;;
74707;SDS011;63360;50.104;8.074;2023-04-25T00:53:23;14.68;;;6.63;;
74707;SDS011;63360;50.104;8.074;2023-04-25T00:55:52;10.88;;;5.60;;
74707;SDS011;63360;50.104;8.074;2023-04-25T00:58:19;12.00;;;6.20;;
74707;SDS011;63360;50.104;8.074;2023-04-25T01:00:47;13.13;;;6.70;;
74707;SDS011;63360;50.104;8.074;2023-04-25T01:03:15;13.07;;;6.35;;
74707;SDS011;63360;50.104;8.074;2023-04-25T01:05:43;13.05;;;6.40;;
74707;SDS011;63360;50.104;8.074;2023-04-25T01:08:10;13.85;;;7.13;;
74707;SDS011;63360;50.104;8.074;2023-04-25T01:10:36;13.18;;;6.63;;
74707;SDS011;63360;50.104;8.074;2023-04-25T01:13:03;16.83;;;6.53;;
74707;SDS011;63360;50.104;8.074;2023-04-25T01:15:29;14.77;;;6.93;;
74707;SDS011;63360;50.104;8.074;2023-04-25T01:17:57;15.13;;;6.55;;
74707;SDS011;63360;50.104;8.074;2023-04-25T01:20:24;13.05;;;6.78;;
74707;SDS011;63360;50.104;8.074;2023-04-25T01:22:54;15.88;;;7.35;;
74707;SDS011;63360;50.104;8.074;2023-04-25T01:25:22;16.43;;;7.37;;
74707;SDS011;63360;50.104;8.074;2023-04-25T01:27:48;13.88;;;7.30;;
74707;SDS011;63360;50.104;8.074;2023-04-25T01:30:15;13.50;;;6.72;;
74707;SDS011;63360;50.104;8.074;2023-04-25T01:32:41;15.57;;;7.00;;
74707;SDS011;63360;50.104;8.074;2023-04-25T01:35:09;16.83;;;7.20;;
74707;SDS011;63360;50.104;8.074;2023-04-25T01:37:37;16.63;;;7.33;;
74707;SDS011;63360;50.104;8.074;2023-04-25T01:40:11;16.25;;;7.47;;
74707;SDS011;63360;50.104;8.074;2023-04-25T01:42:39;17.65;;;7.75;;
74707;SDS011;63360;50.104;8.074;2023-04-25T01:45:08;15.18;;;7.78;;
74707;SDS011;63360;50.104;8.074;2023-04-25T01:47:35;16.42;;;7.88;;
74707;SDS011;63360;50.104;8.074;2023-04-25T01:50:02;17.10;;;7.73;;
74707;SDS011;63360;50.104;8.074;2023-04-25T01:52:30;15.75;;;7.68;;
74707;SDS011;63360;50.104;8.074;2023-04-25T01:54:57;16.90;;;8.05;;
74707;SDS011;63360;50.104;8.074;2023-04-25T01:57:25;17.20;;;8.05;;
74707;SDS011;63360;50.104;8.074;2023-04-25T01:59:53;19.25;;;8.30;;
74707;SDS011;63360;50.104;8.074;2023-04-25T02:02:24;17.30;;;7.77;;
74707;SDS011;63360;50.104;8.074;2023-04-25T02:04:51;18.63;;;8.00;;
74707;SDS011;63360;50.104;8.074;2023-04-25T02:07:17;19.30;;;7.78;;
74707;SDS011;63360;50.104;8.074;2023-04-25T02:09:44;17.08;;;7.72;;
74707;SDS011;63360;50.104;8.074;2023-04-25T02:12:10;17.27;;;8.02;;
74707;SDS011;63360;50.104;8.074;2023-04-25T02:14:37;16.10;;;7.10;;
74707;SDS011;63360;50.104;8.074;2023-04-25T02:17:03;17.85;;;7.80;;
74707;SDS011;63360;50.104;8.074;2023-04-25T02:19:30;16.60;;;7.65;;
74707;SDS011;63360;50.104;8.074;2023-04-25T02:21:56;15.50;;;7.32;;
74707;SDS011;63360;50.104;8.074;2023-04-25T02:24:24;17.15;;;7.68;;
74707;SDS011;63360;50.104;8.074;2023-04-25T02:26:50;17.33;;;7.10;;
74707;SDS011;63360;50.104;8.074;2023-04-25T02:29:17;18.20;;;8.15;;
74707;SDS011;63360;50.104;8.074;2023-04-25T02:31:43;18.85;;;8.25;;
74707;SDS011;63360;50.104;8.074;2023-04-25T02:34:10;17.27;;;8.05;;
74707;SDS011;63360;50.104;8.074;2023-04-25T02:36:36;18.27;;;7.68;;
74707;SDS011;63360;50.104;8.074;2023-04-25T02:39:02;19.83;;;7.93;;
74707;SDS011;63360;50.104;8.074;2023-04-25T02:41:29;21.08;;;7.70;;
74707;SDS011;63360;50.104;8.074;2023-04-25T02:43:55;16.77;;;7.68;;
74707;SDS011;63360;50.104;8.074;2023-04-25T02:46:22;17.75;;;8.13;;
74707;SDS011;63360;50.104;8.074;2023-04-25T02:49:04;18.10;;;8.10;;
74707;SDS011;63360;50.104;8.074;2023-04-25T02:51:31;18.03;;;7.53;;
74707;SDS011;63360;50.104;8.074;2023-04-25T02:53:58;18.00;;;7.65;;
74707;SDS011;63360;50.104;8.074;2023-04-25T02:56:25;19.05;;;7.60;;
74707;SDS011;63360;50.104;8.074;2023-04-25T02:58:52;18.27;;;8.20;;
74707;SDS011;63360;50.104;8.074;2023-04-25T03:01:19;16.38;;;7.90;;
74707;SDS011;63360;50.104;8.074;2023-04-25T03:03:46;19.60;;;8.20;;
74707;SDS011;63360;50.104;8.074;2023-04-25T03:06:13;16.25;;;7.82;;
74707;SDS011;63360;50.104;8.074;2023-04-25T03:08:39;18.75;;;7.18;;
74707;SDS011;63360;50.104;8.074;2023-04-25T03:11:06;21.05;;;8.13;;
74707;SDS011;63360;50.104;8.074;2023-04-25T03:13:32;19.92;;;8.18;;
74707;SDS011;63360;50.104;8.074;2023-04-25T03:15:58;21.47;;;8.53;;
74707;SDS011;63360;50.104;8.074;2023-04-25T03:18:25;21.75;;;8.68;;
74707;SDS011;63360;50.104;8.074;2023-04-25T03:20:51;18.83;;;8.27;;
74707;SDS011;63360;50.104;8.074;2023-04-25T03:23:18;16.33;;;7.65;;
74707;SDS011;63360;50.104;8.074;2023-04-25T03:25:44;19.00;;;8.65;;
74707;SDS011;63360;50.104;8.074;2023-04-25T03:28:11;18.40;;;8.20;;
74707;SDS011;63360;50.104;8.074;2023-04-25T03:30:37;23.10;;;8.50;;
74707;SDS011;63360;50.104;8.074;2023-04-25T03:33:03;23.85;;;8.30;;
74707;SDS011;63360;50.104;8.074;2023-04-25T03:35:30;19.70;;;7.45;;
74707;SDS011;63360;50.104;8.074;2023-04-25T03:37:56;18.23;;;7.90;;
74707;SDS011;63360;50.104;8.074;2023-04-25T03:40:23;21.17;;;8.13;;
74707;SDS011;63360;50.104;8.074;2023-04-25T03:42:49;19.77;;;7.68;;
74707;SDS011;63360;50.104;8.074;2023-04-25T03:45:16;18.73;;;7.45;;
74707;SDS011;63360;50.104;8.074;2023-04-25T03:47:42;18.20;;;7.40;;
74707;SDS011;63360;50.104;8.074;2023-04-25T03:50:09;20.35;;;8.15;;
74707;SDS011;63360;50.104;8.074;2023-04-25T03:52:36;21.13;;;7.27;;
74707;SDS011;63360;50.104;8.074;2023-04-25T03:55:02;19.92;;;7.50;;
74707;SDS011;63360;50.104;8.074;2023-04-25T03:57:30;18.02;;;6.88;;
74707;SDS011;63360;50.104;8.074;2023-04-25T03:59:57;15.05;;;5.47;;
74707;SDS011;63360;50.104;8.074;2023-04-25T04:02:23;15.50;;;6.00;;
74707;SDS011;63360;50.104;8.074;2023-04-25T04:04:50;13.97;;;5.00;;
74707;SDS011;63360;50.104;8.074;2023-04-25T04:07:16;17.10;;;4.45;;
74707;SDS011;63360;50.104;8.074;2023-04-25T04:09:43;18.23;;;5.07;;
74707;SDS011;63360;50.104;8.074;2023-04-25T04:12:09;12.50;;;4.13;;
74707;SDS011;63360;50.104;8.074;2023-04-25T04:14:36;12.55;;;4.00;;
74707;SDS011;63360;50.104;8.074;2023-04-25T04:17:02;11.27;;;3.90;;
74707;SDS011;63360;50.104;8.074;2023-04-25T04:19:29;13.25;;;4.05;;
74707;SDS011;63360;50.104;8.074;2023-04-25T04:21:55;9.02;;;3.63;;
74707;SDS011;63360;50.104;8.074;2023-04-25T04:24:21;12.65;;;4.32;;
74707;SDS011;63360;50.104;8.074;2023-04-25T04:26:48;12.45;;;3.53;;
74707;SDS011;63360;50.104;8.074;2023-04-25T04:29:14;11.03;;;3.50;;
74707;SDS011;63360;50.104;8.074;2023-04-25T04:31:50;16.85;;;4.22;;
74707;SDS011;63360;50.104;8.074;2023-04-25T04:34:17;17.52;;;4.32;;
74707;SDS011;63360;50.104;8.074;2023-04-25T04:36:44;13.60;;;4.10;;
74707;SDS011;63360;50.104;8.074;2023-04-25T04:39:14;18.20;;;4.20;;
74707;SDS011;63360;50.104;8.074;2023-04-25T04:41:41;11.63;;;3.87;;
74707;SDS011;63360;50.104;8.074;2023-04-25T04:44:07;14.27;;;4.40;;
74707;SDS011;63360;50.104;8.074;2023-04-25T04:46:35;13.40;;;4.35;;
74707;SDS011;63360;50.104;8.074;2023-04-25T04:49:07;15.38;;;5.35;;
74707;SDS011;63360;50.104;8.074;2023-04-25T04:51:37;18.50;;;5.43;;
74707;SDS011;63360;50.104;8.074;2023-04-25T04:54:04;14.97;;;4.43;;
74707;SDS011;63360;50.104;8.074;2023-04-25T04:56:30;16.33;;;4.88;;
74707;SDS011;63360;50.104;8.074;2023-04-25T04:58:57;14.55;;;4.55;;
74707;SDS011;63360;50.104;8.074;2023-04-25T05:01:24;15.63;;;4.53;;
74707;SDS011;63360;50.104;8.074;2023-04-25T05:03:52;15.23;;;4.55;;
74707;SDS011;63360;50.104;8.074;2023-04-25T05:06:19;17.77;;;4.43;;
74707;SDS011;63360;50.104;8.074;2023-04-25T05:08:46;16.00;;;4.93;;
74707;SDS011;63360;50.104;8.074;2023-04-25T05:11:12;14.30;;;4.70;;
74707;SDS011;63360;50.104;8.074;2023-04-25T05:13:39;13.60;;;4.25;;
74707;SDS011;63360;50.104;8.074;2023-04-25T05:16:05;16.58;;;4.68;;
74707;SDS011;63360;50.104;8.074;2023-04-25T05:18:32;13.47;;;4.67;;
74707;SDS011;63360;50.104;8.074;2023-04-25T05:20:58;14.55;;;4.30;;
74707;SDS011;63360;50.104;8.074;2023-04-25T05:23:24;13.30;;;4.07;;
74707;SDS011;63360;50.104;8.074;2023-04-25T05:25:51;12.90;;;4.75;;
74707;SDS011;63360;50.104;8.074;2023-04-25T05:28:17;13.13;;;4.20;;
74707;SDS011;63360;50.104;8.074;2023-04-25T05:30:44;16.00;;;4.93;;
74707;SDS011;63360;50.104;8.074;2023-04-25T05:33:10;14.18;;;4.28;;
74707;SDS011;63360;50.104;8.074;2023-04-25T05:35:37;14.75;;;4.65;;
74707;SDS011;63360;50.104;8.074;2023-04-25T05:38:03;13.50;;;4.38;;
74707;SDS011;63360;50.104;8.074;2023-04-25T05:40:29;12.75;;;4.22;;
74707;SDS011;63360;50.104;8.074;2023-04-25T05:42:56;13.27;;;4.10;;
74707;SDS011;63360;50.104;8.074;2023-04-25T05:45:22;12.65;;;4.68;;
74707;SDS011;63360;50.104;8.074;2023-04-25T05:47:49;11.75;;;4.50;;
74707;SDS011;63360;50.104;8.074;2023-04-25T05:50:15;15.52;;;4.05;;
74707;SDS011;63360;50.104;8.074;2023-04-25T05:52:42;12.48;;;4.20;;
74707;SDS011;63360;50.104;8.074;2023-04-25T05:55:08;15.10;;;3.83;;
74707;SDS011;63360;50.104;8.074;2023-04-25T05:57:35;11.25;;;3.60;;
74707;SDS011;63360;50.104;8.074;2023-04-25T06:00:01;10.13;;;4.03;;
74707;SDS011;63360;50.104;8.074;2023-04-25T06:02:29;12.15;;;3.50;;
74707;SDS011;63360;50.104;8.074;2023-04-25T06:04:56;9.63;;;3.47;;
74707;SDS011;63360;50.104;8.074;2023-04-25T06:07:22;11.13;;;3.27;;
74707;SDS011;63360;50.104;8.074;2023-04-25T06:09:49;10.27;;;3.17;;
74707;SDS011;63360;50.104;8.074;2023-04-25T06:12:15;12.50;;;4.00;;
74707;SDS011;63360;50.104;8.074;2023-04-25T06:14:42;11.93;;;3.53;;
74707;SDS011;63360;50.104;8.074;2023-04-25T06:17:08;10.30;;;3.35;;
74707;SDS011;63360;50.104;8.074;2023-04-25T06:19:37;8.17;;;2.93;;
74707;SDS011;63360;50.104;8.074;2023-04-25T06:22:03;10.55;;;3.30;;
74707;SDS011;63360;50.104;8.074;2023-04-25T06:24:30;11.25;;;3.75;;
74707;SDS011;63360;50.104;8.074;2023-04-25T06:26:56;11.45;;;3.80;;
74707;SDS011;63360;50.104;8.074;2023-04-25T06:29:23;12.05;;;3.80;;
74707;SDS011;63360;50.104;8.074;2023-04-25T06:31:49;11.13;;;3.50;;
74707;SDS011;63360;50.104;8.074;2023-04-25T06:34:16;11.65;;;3.38;;
74707;SDS011;63360;50.104;8.074;2023-04-25T06:36:43;12.35;;;3.20;;
74707;SDS011;63360;50.104;8.074;2023-04-25T06:39:10;10.45;;;3.30;;
74707;SDS011;63360;50.104;8.074;2023-04-25T06:41:37;11.35;;;3.40;;
74707;SDS011;63360;50.104;8.074;2023-04-25T06:44:03;10.97;;;3.27;;
74707;SDS011;63360;50.104;8.074;2023-04-25T06:46:30;13.70;;;3.13;;
74707;SDS011;63360;50.104;8.074;2023-04-25T06:48:56;8.13;;;2.97;;
74707;SDS011;63360;50.104;8.074;2023-04-25T06:51:23;8.35;;;2.97;;
74707;SDS011;63360;50.104;8.074;2023-04-25T06:53:50;8.73;;;3.00;;
74707;SDS011;63360;50.104;8.074;2023-04-25T06:56:16;9.70;;;3.23;;
74707;SDS011;63360;50.104;8.074;2023-04-25T06:58:43;9.32;;;3.60;;
74707;SDS011;63360;50.104;8.074;2023-04-25T07:01:09;10.90;;;3.45;;
74707;SDS011;63360;50.104;8.074;2023-04-25T07:03:36;8.23;;;3.03;;
74707;SDS011;63360;50.104;8.074;2023-04-25T07:06:04;9.80;;;2.70;;
74707;SDS011;63360;50.104;8.074;2023-04-25T07:08:30;8.20;;;2.30;;
74707;SDS011;63360;50.104;8.074;2023-04-25T07:10:57;6.82;;;2.30;;
74707;SDS011;63360;50.104;8.074;2023-04-25T07:13:23;6.57;;;2.75;;
74707;SDS011;63360;50.104;8.074;2023-04-25T07:15:49;7.50;;;2.55;;
74707;SDS011;63360;50.104;8.074;2023-04-25T07:18:16;7.80;;;2.80;;
74707;SDS011;63360;50.104;8.074;2023-04-25T07:20:42;7.97;;;2.40;;
74707;SDS011;63360;50.104;8.074;2023-04-25T07:23:09;5.70;;;2.10;;
74707;SDS011;63360;50.104;8.074;2023-04-25T07:25:35;6.50;;;1.73;;
74707;SDS011;63360;50.104;8.074;2023-04-25T07:28:01;4.97;;;1.85;;
74707;SDS011;63360;50.104;8.074;2023-04-25T07:30:28;5.22;;;1.83;;
74707;SDS011;63360;50.104;8.074;2023-04-25T07:32:55;6.13;;;1.53;;
74707;SDS011;63360;50.104;8.074;2023-04-25T07:35:21;3.90;;;1.63;;
74707;SDS011;63360;50.104;8.074;2023-04-25T07:37:48;4.50;;;1.63;;
74707;SDS011;63360;50.104;8.074;2023-04-25T07:40:16;5.72;;;1.80;;
74707;SDS011;63360;50.104;8.074;2023-04-25T07:42:42;4.70;;;1.95;;
74707;SDS011;63360;50.104;8.074;2023-04-25T07:45:09;5.10;;;1.60;;
74707;SDS011;63360;50.104;8.074;2023-04-25T07:47:36;5.00;;;1.67;;
74707;SDS011;63360;50.104;8.074;2023-04-25T07:50:02;5.68;;;1.63;;
74707;SDS011;63360;50.104;8.074;2023-04-25T07:52:29;4.60;;;1.83;;
74707;SDS011;63360;50.104;8.074;2023-04-25T07:54:56;6.43;;;1.92;;
74707;SDS011;63360;50.104;8.074;2023-04-25T07:57:23;6.63;;;1.57;;
74707;SDS011;63360;50.104;8.074;2023-04-25T07:59:50;4.32;;;1.50;;
74707;SDS011;63360;50.104;8.074;2023-04-25T08:02:16;4.35;;;1.80;;
74707;SDS011;63360;50.104;8.074;2023-04-25T08:04:43;3.50;;;1.50;;
74707;SDS011;63360;50.104;8.074;2023-04-25T08:07:09;5.32;;;1.25;;
74707;SDS011;63360;50.104;8.074;2023-04-25T08:09:36;5.13;;;1.80;;
74707;SDS011;63360;50.104;8.074;2023-04-25T08:12:03;6.70;;;1.70;;
74707;SDS011;63360;50.104;8.074;2023-04-25T08:14:29;5.95;;;1.95;;
74707;SDS011;63360;50.104;8.074;2023-04-25T08:17:02;4.00;;;1.58;;
74707;SDS011;63360;50.104;8.074;2023-04-25T08:19:29;4.45;;;1.70;;
74707;SDS011;63360;50.104;8.074;2023-04-25T08:21:56;6.70;;;2.00;;
74707;SDS011;63360;50.104;8.074;2023-04-25T08:24:23;5.85;;;1.92;;
74707;SDS011;63360;50.104;8.074;2023-04-25T08:26:49;6.72;;;1.90;;
74707;SDS011;63360;50.104;8.074;2023-04-25T08:29:16;4.28;;;2.10;;
74707;SDS011;63360;50.104;8.074;2023-04-25T08:31:42;7.35;;;2.38;;
74707;SDS011;63360;50.104;8.074;2023-04-25T08:34:08;7.07;;;2.70;;
74707;SDS011;63360;50.104;8.074;2023-04-25T08:36:35;6.20;;;2.30;;
74707;SDS011;63360;50.104;8.074;2023-04-25T08:39:05;5.57;;;2.40;;
74707;SDS011;63360;50.104;8.074;2023-04-25T08:41:31;7.57;;;2.38;;
74707;SDS011;63360;50.104;8.074;2023-04-25T08:43:58;4.88;;;2.03;;
74707;SDS011;63360;50.104;8.074;2023-04-25T08:46:27;7.90;;;2.83;;
74707;SDS011;63360;50.104;8.074;2023-04-25T08:48:55;7.03;;;2.53;;
74707;SDS011;63360;50.104;8.074;2023-04-25T08:51:26;7.15;;;2.30;;
74707;SDS011;63360;50.104;8.074;2023-04-25T08:53:54;8.38;;;2.80;;
74707;SDS011;63360;50.104;8.074;2023-04-25T08:56:27;6.32;;;2.47;;
74707;SDS011;63360;50.104;8.074;2023-04-25T08:58:54;7.63;;;2.80;;
74707;SDS011;63360;50.104;8.074;2023-04-25T09:01:21;6.35;;;2.60;;
74707;SDS011;63360;50.104;8.074;2023-04-25T09:03:48;6.25;;;2.40;;
74707;SDS011;63360;50.104;8.074;2023-04-25T09:06:15;6.13;;;2.40;;
74707;SDS011;63360;50.104;8.074;2023-04-25T09:08:43;9.27;;;2.72;;
74707;SDS011;63360;50.104;8.074;2023-04-25T09:11:09;7.37;;;2.73;;
74707;SDS011;63360;50.104;8.074;2023-04-25T09:13:36;7.18;;;2.72;;
74707;SDS011;63360;50.104;8.074;2023-04-25T09:16:02;8.25;;;3.05;;
74707;SDS011;63360;50.104;8.074;2023-04-25T09:18:31;8.30;;;3.00;;
74707;SDS011;63360;50.104;8.074;2023-04-25T09:21:06;7.93;;;3.10;;
74707;SDS011;63360;50.104;8.074;2023-04-25T09:23:46;8.73;;;3.10;;
74707;SDS011;63360;50.104;8.074;2023-04-25T09:26:15;6.55;;;3.10;;
74707;SDS011;63360;50.104;8.074;2023-04-25T09:28:43;11.93;;;3.50;;
74707;SDS011;63360;50.104;8.074;2023-04-25T09:31:10;9.07;;;3.55;;
74707;SDS011;63360;50.104;8.074;2023-04-25T09:33:37;8.23;;;3.58;;
74707;SDS011;63360;50.104;8.074;2023-04-25T09:36:08;8.20;;;3.20;;
74707;SDS011;63360;50.104;8.074;2023-04-25T09:38:41;9.48;;;3.65;;
74707;SDS011;63360;50.104;8.074;2023-04-25T09:41:10;8.98;;;3.38;;
74707;SDS011;63360;50.104;8.074;2023-04-25T09:43:37;7.18;;;3.10;;
74707;SDS011;63360;50.104;8.074;2023-04-25T09:46:08;8.40;;;3.20;;
74707;SDS011;63360;50.104;8.074;2023-04-25T09:48:37;10.53;;;3.60;;
74707;SDS011;63360;50.104;8.074;2023-04-25T09:51:11;10.48;;;3.67;;
74707;SDS011;63360;50.104;8.074;2023-04-25T09:53:42;8.25;;;3.70;;
74707;SDS011;63360;50.104;8.074;2023-04-25T09:56:12;8.95;;;3.40;;
74707;SDS011;63360;50.104;8.074;2023-04-25T09:58:39;7.65;;;3.35;;
74707;SDS011;63360;50.104;8.074;2023-04-25T10:01:07;8.63;;;3.20;;
74707;SDS011;63360;50.104;8.074;2023-04-25T10:03:36;9.07;;;3.40;;
74707;SDS011;63360;50.104;8.074;2023-04-25T10:06:11;8.15;;;3.70;;
74707;SDS011;63360;50.104;8.074;2023-04-25T10:08:40;8.13;;;3.30;;
74707;SDS011;63360;50.104;8.074;2023-04-25T10:11:08;8.25;;;3.70;;
74707;SDS011;63360;50.104;8.074;2023-04-25T10:13:35;10.30;;;3.80;;
74707;SDS011;63360;50.104;8.074;2023-04-25T10:16:02;9.50;;;3.58;;
74707;SDS011;63360;50.104;8.074;2023-04-25T10:18:31;8.13;;;3.47;;
74707;SDS011;63360;50.104;8.074;2023-04-25T10:20:59;10.85;;;4.22;;
74707;SDS011;63360;50.104;8.074;2023-04-25T10:23:27;8.50;;;3.33;;
74707;SDS011;63360;50.104;8.074;2023-04-25T10:25:55;7.30;;;2.83;;
74707;SDS011;63360;50.104;8.074;2023-04-25T10:28:21;10.38;;;3.50;;
74707;SDS011;63360;50.104;8.074;2023-04-25T10:31:03;10.98;;;3.25;;
74707;SDS011;63360;50.104;8.074;2023-04-25T10:38:44;8.80;;;3.43;;
74707;SDS011;63360;50.104;8.074;2023-04-25T10:41:12;8.50;;;3.05;;
74707;SDS011;63360;50.104;8.074;2023-04-25T10:43:40;8.95;;;3.25;;
74707;SDS011;63360;50.104;8.074;2023-04-25T10:48:54;9.32;;;2.80;;
74707;SDS011;63360;50.104;8.074;2023-04-25T10:51:23;9.17;;;3.10;;
74707;SDS011;63360;50.104;8.074;2023-04-25T10:54:13;7.80;;;3.28;;
74707;SDS011;63360;50.104;8.074;2023-04-25T10:56:38;9.32;;;3.10;;
74707;SDS011;63360;50.104;8.074;2023-04-25T10:59:08;9.55;;;3.20;;
74707;SDS011;63360;50.104;8.074;2023-04-25T11:01:40;9.93;;;3.65;;
74707;SDS011;63360;50.104;8.074;2023-04-25T11:04:21;10.00;;;3.10;;
74707;SDS011;63360;50.104;8.074;2023-04-25T11:09:33;12.75;;;3.40;;
74707;SDS011;63360;50.104;8.074;2023-04-25T11:12:04;10.65;;;3.15;;
74707;SDS011;63360;50.104;8.074;2023-04-25T11:14:31;8.63;;;3.22;;
74707;SDS011;63360;50.104;8.074;2023-04-25T11:16:58;9.30;;;2.73;;
74707;SDS011;63360;50.104;8.074;2023-04-25T11:19:26;6.70;;;2.67;;
74707;SDS011;63360;50.104;8.074;2023-04-25T11:21:57;7.20;;;3.13;;
74707;SDS011;63360;50.104;8.074;2023-04-25T11:24:27;9.48;;;3.17;;
74707;SDS011;63360;50.104;8.074;2023-04-25T11:26:53;9.60;;;2.88;;
74707;SDS011;63360;50.104;8.074;2023-04-25T11:29:23;9.53;;;2.97;;
74707;SDS011;63360;50.104;8.074;2023-04-25T11:31:53;11.43;;;3.15;;
74707;SDS011;63360;50.104;8.074;2023-04-25T11:34:23;9.25;;;2.70;;
74707;SDS011;63360;50.104;8.074;2023-04-25T11:36:51;8.95;;;3.53;;
74707;SDS011;63360;50.104;8.074;2023-04-25T11:39:21;10.68;;;2.80;;
74707;SDS011;63360;50.104;8.074;2023-04-25T11:41:48;8.90;;;2.93;;
74707;SDS011;63360;50.104;8.074;2023-04-25T11:44:17;9.55;;;2.88;;
74707;SDS011;63360;50.104;8.074;2023-04-25T11:46:45;8.38;;;2.80;;
74707;SDS011;63360;50.104;8.074;2023-04-25T11:49:12;6.90;;;3.05;;
74707;SDS011;63360;50.104;8.074;2023-04-25T11:54:06;7.03;;;2.60;;
74707;SDS011;63360;50.104;8.074;2023-04-25T11:56:33;7.72;;;2.75;;
74707;SDS011;63360;50.104;8.074;2023-04-25T11:59:00;9.98;;;3.00;;
74707;SDS011;63360;50.104;8.074;2023-04-25T12:01:31;6.72;;;2.60;;
74707;SDS011;63360;50.104;8.074;2023-04-25T12:06:46;5.57;;;2.20;;
74707;SDS011;63360;50.104;8.074;2023-04-25T12:09:15;6.32;;;2.20;;
74707;SDS011;63360;50.104;8.074;2023-04-25T12:11:48;7.65;;;2.90;;
74707;SDS011;63360;50.104;8.074;2023-04-25T12:14:22;5.53;;;2.30;;
74707;SDS011;63360;50.104;8.074;2023-04-25T12:16:50;7.05;;;3.00;;
74707;SDS011;63360;50.104;8.074;2023-04-25T12:19:20;8.33;;;2.60;;
74707;SDS011;63360;50.104;8.074;2023-04-25T12:21:47;8.27;;;2.40;;
74707;SDS011;63360;50.104;8.074;2023-04-25T12:24:24;8.63;;;2.42;;
74707;SDS011;63360;50.104;8.074;2023-04-25T12:29:31;5.93;;;2.25;;
74707;SDS011;63360;50.104;8.074;2023-04-25T12:32:13;5.33;;;2.30;;
74707;SDS011;63360;50.104;8.074;2023-04-25T12:34:39;7.30;;;2.22;;
74707;SDS011;63360;50.104;8.074;2023-04-25T12:37:06;7.53;;;2.50;;
74707;SDS011;63360;50.104;8.074;2023-04-25T12:39:32;8.68;;;2.40;;
74707;SDS011;63360;50.104;8.074;2023-04-25T12:41:58;6.20;;;1.92;;
74707;SDS011;63360;50.104;8.074;2023-04-25T12:44:26;8.10;;;2.30;;
74707;SDS011;63360;50.104;8.074;2023-04-25T12:46:52;7.93;;;2.72;;
74707;SDS011;63360;50.104;8.074;2023-04-25T12:49:20;9.25;;;2.60;;
74707;SDS011;63360;50.104;8.074;2023-04-25T12:51:48;7.85;;;2.20;;
74707;SDS011;63360;50.104;8.074;2023-04-25T12:54:15;9.35;;;2.38;;
74707;SDS011;63360;50.104;8.074;2023-04-25T12:56:41;5.80;;;2.30;;
74707;SDS011;63360;50.104;8.074;2023-04-25T12:59:08;5.43;;;2.08;;
74707;SDS011;63360;50.104;8.074;2023-04-25T13:01:35;6.53;;;2.38;;
74707;SDS011;63360;50.104;8.074;2023-04-25T13:04:02;6.30;;;2.28;;
74707;SDS011;63360;50.104;8.074;2023-04-25T13:06:29;5.85;;;2.28;;
74707;SDS011;63360;50.104;8.074;2023-04-25T13:08:57;5.03;;;2.00;;
74707;SDS011;63360;50.104;8.074;2023-04-25T13:11:24;7.28;;;2.22;;
74707;SDS011;63360;50.104;8.074;2023-04-25T13:13:50;7.50;;;2.30;;
74707;SDS011;63360;50.104;8.074;2023-04-25T13:16:17;6.40;;;2.28;;
74707;SDS011;63360;50.104;8.074;2023-04-25T13:18:46;5.53;;;2.13;;
74707;SDS011;63360;50.104;8.074;2023-04-25T13:21:13;7.20;;;2.47;;
74707;SDS011;63360;50.104;8.074;2023-04-25T13:23:39;7.43;;;2.38;;
74707;SDS011;63360;50.104;8.074;2023-04-25T13:26:06;7.35;;;2.10;;
74707;SDS011;63360;50.104;8.074;2023-04-25T13:28:33;7.93;;;2.70;;
74707;SDS011;63360;50.104;8.074;2023-04-25T13:30:59;7.20;;;2.20;;
74707;SDS011;63360;50.104;8.074;2023-04-25T13:33:25;4.77;;;2.00;;
74707;SDS011;63360;50.104;8.074;2023-04-25T13:35:52;8.02;;;2.10;;
74707;SDS011;63360;50.104;8.074;2023-04-25T13:38:23;6.32;;;2.03;;
74707;SDS011;63360;50.104;8.074;2023-04-25T13:40:51;6.53;;;2.30;;
74707;SDS011;63360;50.104;8.074;2023-04-25T13:43:19;7.10;;;2.22;;
74707;SDS011;63360;50.104;8.074;2023-04-25T13:45:48;5.93;;;2.13;;
74707;SDS011;63360;50.104;8.074;2023-04-25T13:48:15;5.28;;;2.08;;
74707;SDS011;63360;50.104;8.074;2023-04-25T13:50:42;5.28;;;2.70;;
74707;SDS011;63360;50.104;8.074;2023-04-25T13:53:08;10.38;;;2.40;;
74707;SDS011;63360;50.104;8.074;2023-04-25T13:55:35;9.52;;;2.20;;
74707;SDS011;63360;50.104;8.074;2023-04-25T13:58:03;7.33;;;2.63;;
74707;SDS011;63360;50.104;8.074;2023-04-25T14:00:35;6.78;;;2.67;;
74707;SDS011;63360;50.104;8.074;2023-04-25T14:03:04;7.55;;;2.50;;
74707;SDS011;63360;50.104;8.074;2023-04-25T14:05:34;7.07;;;2.80;;
74707;SDS011;63360;50.104;8.074;2023-04-25T14:08:06;4.97;;;2.00;;
74707;SDS011;63360;50.104;8.074;2023-04-25T14:10:33;7.17;;;2.10;;
74707;SDS011;63360;50.104;8.074;2023-04-25T14:13:01;6.75;;;2.17;;
74707;SDS011;63360;50.104;8.074;2023-04-25T14:15:29;4.68;;;2.20;;
74707;SDS011;63360;50.104;8.074;2023-04-25T14:17:58;3.92;;;2.03;;
74707;SDS011;63360;50.104;8.074;2023-04-25T14:20:25;5.97;;;1.90;;
74707;SDS011;63360;50.104;8.074;2023-04-25T14:22:52;6.20;;;2.03;;
74707;SDS011;63360;50.104;8.074;2023-04-25T14:25:20;7.72;;;2.05;;
74707;SDS011;63360;50.104;8.074;2023-04-25T14:27:47;8.63;;;2.28;;
74707;SDS011;63360;50.104;8.074;2023-04-25T14:30:16;6.03;;;1.90;;
74707;SDS011;63360;50.104;8.074;2023-04-25T14:32:44;8.30;;;2.40;;
74707;SDS011;63360;50.104;8.074;2023-04-25T14:35:11;5.57;;;2.00;;
74707;SDS011;63360;50.104;8.074;2023-04-25T14:37:38;6.53;;;2.28;;
74707;SDS011;63360;50.104;8.074;2023-04-25T14:40:05;5.78;;;2.15;;
74707;SDS011;63360;50.104;8.074;2023-04-25T14:42:33;8.43;;;2.40;;
74707;SDS011;63360;50.104;8.074;2023-04-25T14:45:00;6.57;;;2.15;;
74707;SDS011;63360;50.104;8.074;2023-04-25T14:47:26;6.50;;;2.03;;
74707;SDS011;63360;50.104;8.074;2023-04-25T14:49:53;6.90;;;2.03;;
74707;SDS011;63360;50.104;8.074;2023-04-25T14:52:20;6.45;;;1.98;;
74707;SDS011;63360;50.104;8.074;2023-04-25T14:54:47;6.32;;;2.10;;
74707;SDS011;63360;50.104;8.074;2023-04-25T14:57:13;4.53;;;1.60;;
74707;SDS011;63360;50.104;8.074;2023-04-25T14:59:43;5.63;;;1.70;;
74707;SDS011;63360;50.104;8.074;2023-04-25T15:02:10;7.78;;;1.75;;